Time;durP1;ratioP1;P1;durP2;ratioP2;P2;SDS_P1;SDS_P2;PMS_P1;PMS_P2;Temp;Humidity;BMP_temperature;BMP_pressure;BME280_temperature;BME280_humidity;BME280_pressure;Samples;Min_cycle;Max_cycle;Signal;HPM_P1;HPM_P2
2021/12/19 00:02:03;;;;;;;59.93;18.57;;;8.70;99.90;;;;;;5074535;28;20708;-73
2021/12/19 00:04:40;;;;;;;40.73;14.53;;;8.10;99.90;;;;;;5071240;28;20231;-74
2021/12/19 00:09:51;;;;;;;54.43;17.53;;;8.10;99.90;;;;;;5074416;28;20208;-71
2021/12/19 00:12:18;;;;;;;56.00;16.67;;;8.10;99.90;;;;;;5076130;28;20232;-74
2021/12/19 00:14:45;;;;;;;55.70;16.90;;;8.10;99.90;;;;;;5074341;28;20214;-73
2021/12/19 00:17:12;;;;;;;57.27;17.43;;;8.00;99.90;;;;;;5072809;28;20222;-74
2021/12/19 00:19:40;;;;;;;38.27;10.93;;;8.00;99.90;;;;;;5073411;28;20952;-74
2021/12/19 00:22:07;;;;;;;47.93;13.63;;;8.00;99.90;;;;;;5074243;28;20239;-74
2021/12/19 00:24:34;;;;;;;49.07;15.67;;;8.00;99.90;;;;;;5072588;28;20334;-74
2021/12/19 00:27:01;;;;;;;55.20;17.00;;;8.00;99.90;;;;;;5073736;28;20490;-74
2021/12/19 00:29:28;;;;;;;51.63;15.20;;;8.00;99.90;;;;;;5073783;28;20215;-74
2021/12/19 00:31:55;;;;;;;57.00;16.53;;;8.00;99.90;;;;;;5074288;28;20316;-76
2021/12/19 00:34:23;;;;;;;55.30;16.37;;;8.00;99.90;;;;;;5073995;28;20204;-74
2021/12/19 00:36:51;;;;;;;52.47;16.57;;;8.00;99.90;;;;;;5074635;28;20292;-74
2021/12/19 00:39:18;;;;;;;44.97;15.20;;;8.00;99.90;;;;;;5073756;28;20218;-74
2021/12/19 00:41:52;;;;;;;49.70;17.03;;;8.00;99.90;;;;;;5073686;28;20232;-73
2021/12/19 00:44:23;;;;;;;52.30;14.10;;;7.90;99.90;;;;;;5076390;28;20235;-73
2021/12/19 00:46:52;;;;;;;54.53;17.53;;;8.00;99.90;;;;;;5077894;28;20204;-71
2021/12/19 00:49:22;;;;;;;56.63;17.07;;;7.90;99.90;;;;;;5077580;28;20498;-72
2021/12/19 00:51:50;;;;;;;44.37;14.57;;;7.90;99.90;;;;;;5078591;28;20231;-72
2021/12/19 00:54:18;;;;;;;43.13;11.30;;;8.00;99.90;;;;;;5078252;28;20221;-73
2021/12/19 00:56:48;;;;;;;47.13;13.70;;;7.90;99.90;;;;;;5076922;28;20213;-72
2021/12/19 00:59:15;;;;;;;51.67;16.73;;;7.90;99.90;;;;;;5078533;28;20218;-72
2021/12/19 01:01:42;;;;;;;50.30;15.10;;;9.80;99.90;;;;;;5078740;28;20238;-73
2021/12/19 01:04:11;;;;;;;51.20;15.63;;;7.90;99.90;;;;;;5079176;28;21146;-72
2021/12/19 01:06:39;;;;;;;48.20;14.67;;;7.90;99.90;;;;;;5079282;28;20215;-72
2021/12/19 01:09:09;;;;;;;53.67;14.13;;;7.90;99.90;;;;;;5076472;28;20212;-72
2021/12/19 01:11:36;;;;;;;48.87;14.07;;;7.90;99.90;;;;;;5076207;28;20251;-73
2021/12/19 01:14:05;;;;;;;54.53;14.07;;;8.00;99.90;;;;;;5078072;28;20675;-72
2021/12/19 01:16:32;;;;;;;54.10;15.07;;;8.00;99.90;;;;;;5077718;28;20204;-73
2021/12/19 01:18:59;;;;;;;57.53;17.10;;;8.00;99.90;;;;;;5077784;28;20708;-72
2021/12/19 01:21:26;;;;;;;41.77;12.00;;;8.00;99.90;;;;;;5077030;28;20251;-73
2021/12/19 01:23:52;;;;;;;53.30;16.80;;;8.00;99.90;;;;;;5078436;28;20234;-72
2021/12/19 01:26:21;;;;;;;56.30;15.70;;;8.00;99.90;;;;;;5078594;28;20603;-72
2021/12/19 01:28:48;;;;;;;47.93;13.80;;;8.10;99.90;;;;;;5079242;28;20208;-72
2021/12/19 01:31:15;;;;;;;54.47;15.53;;;8.10;99.90;;;;;;5076679;28;20763;-72
2021/12/19 01:33:42;;;;;;;35.43;10.77;;;8.00;99.90;;;;;;5076200;28;20212;-72
2021/12/19 01:36:09;;;;;;;57.87;17.67;;;8.00;99.90;;;;;;5076268;28;20936;-72
2021/12/19 01:38:36;;;;;;;54.47;14.30;;;8.00;99.90;;;;;;5077683;28;20213;-72
2021/12/19 01:41:03;;;;;;;55.77;14.50;;;8.00;99.90;;;;;;5076540;28;20216;-72
2021/12/19 01:43:31;;;;;;;50.03;14.23;;;8.00;99.90;;;;;;5076338;28;20228;-72
2021/12/19 01:45:59;;;;;;;50.77;12.80;;;7.90;99.90;;;;;;5077614;28;20213;-72
2021/12/19 01:48:26;;;;;;;49.73;14.60;;;7.90;99.90;;;;;;5076980;28;20216;-72
2021/12/19 01:50:54;;;;;;;52.03;15.93;;;7.90;99.90;;;;;;5077172;28;20599;-73
2021/12/19 01:53:21;;;;;;;52.60;15.83;;;7.90;99.90;;;;;;5077019;28;20712;-72
2021/12/19 01:55:50;;;;;;;54.70;16.73;;;7.90;99.90;;;;;;5075259;28;20272;-73
2021/12/19 01:58:17;;;;;;;53.33;16.70;;;7.90;99.90;;;;;;5077206;28;20224;-73
2021/12/19 02:00:50;;;;;;;52.23;16.33;;;8.00;99.90;;;;;;5076728;28;20215;-72
2021/12/19 02:03:19;;;;;;;59.80;16.97;;;7.90;99.90;;;;;;5075308;28;20243;-72
2021/12/19 02:05:45;;;;;;;54.00;14.23;;;8.00;99.90;;;;;;5081149;28;20219;-73
2021/12/19 02:08:13;;;;;;;51.23;15.10;;;8.00;99.90;;;;;;5095022;28;20212;-72
2021/12/19 02:10:41;;;;;;;52.70;15.27;;;8.00;99.90;;;;;;5076319;28;20918;-72
2021/12/19 02:13:11;;;;;;;49.47;14.57;;;8.00;99.90;;;;;;5075736;28;20241;-72
2021/12/19 02:15:40;;;;;;;50.47;15.37;;;8.00;99.90;;;;;;5077443;28;20209;-72
2021/12/19 02:18:11;;;;;;;63.13;18.53;;;8.00;99.90;;;;;;5067873;28;20298;-72
2021/12/19 02:20:41;;;;;;;53.27;15.80;;;8.00;99.90;;;;;;5075809;28;21224;-72
2021/12/19 02:23:10;;;;;;;44.77;12.13;;;8.00;99.90;;;;;;5076095;28;20858;-72
2021/12/19 02:25:38;;;;;;;53.33;15.67;;;8.00;99.90;;;;;;5076447;28;20228;-72
2021/12/19 02:28:05;;;;;;;58.20;16.50;;;7.90;99.90;;;;;;5075773;28;20650;-72
2021/12/19 02:30:32;;;;;;;51.27;14.90;;;7.90;99.90;;;;;;5076409;28;20238;-73
2021/12/19 02:33:00;;;;;;;55.33;17.17;;;7.90;99.90;;;;;;5076718;28;20231;-72
2021/12/19 02:35:31;;;;;;;57.10;16.13;;;7.90;99.90;;;;;;5075443;28;20207;-72
2021/12/19 02:49:20;;;;;;;65.80;17.53;;;7.80;99.90;;;;;;5030075;28;20750;-73
2021/12/19 02:51:47;;;;;;;51.33;16.93;;;7.80;99.90;;;;;;5032856;28;20237;-73
2021/12/19 02:54:15;;;;;;;51.63;14.63;;;7.80;99.90;;;;;;5040576;28;20227;-72
2021/12/19 02:56:42;;;;;;;53.73;16.37;;;7.80;99.90;;;;;;5073312;28;20605;-73
2021/12/19 02:59:09;;;;;;;57.30;17.07;;;7.80;99.90;;;;;;5075379;28;20218;-72
2021/12/19 03:01:36;;;;;;;57.93;16.47;;;7.80;99.90;;;;;;5074318;28;20240;-73
2021/12/19 03:04:06;;;;;;;48.77;13.67;;;7.80;99.90;;;;;;5072747;28;20226;-73
2021/12/19 03:06:33;;;;;;;53.07;16.30;;;7.70;99.90;;;;;;5075765;28;20936;-73
2021/12/19 03:09:05;;;;;;;42.00;12.37;;;7.70;99.90;;;;;;5076832;28;20212;-73
2021/12/19 03:19:46;;;;;;;56.43;16.90;;;7.70;99.90;;;;;;5073121;28;20669;-73
2021/12/19 03:22:13;;;;;;;52.87;16.67;;;7.60;99.90;;;;;;5074352;28;20225;-73
2021/12/19 03:24:40;;;;;;;58.33;14.97;;;7.60;99.90;;;;;;5074189;28;20221;-73
2021/12/19 03:27:08;;;;;;;63.20;18.07;;;7.70;99.90;;;;;;5074490;28;20404;-74
2021/12/19 03:29:35;;;;;;;64.07;19.03;;;7.00;99.90;;;;;;5073905;28;20220;-73
2021/12/19 03:32:02;;;;;;;58.50;16.83;;;7.70;99.90;;;;;;5073107;28;20235;-73
2021/12/19 03:34:29;;;;;;;57.67;17.07;;;7.70;99.90;;;;;;5075412;28;20227;-72
2021/12/19 03:36:56;;;;;;;56.93;16.03;;;7.70;99.90;;;;;;5073987;28;20239;-73
2021/12/19 03:39:33;;;;;;;57.07;16.47;;;7.80;99.90;;;;;;5074387;28;20220;-73
2021/12/19 03:42:00;;;;;;;51.80;16.90;;;7.70;99.90;;;;;;5074225;28;20242;-73
2021/12/19 03:44:29;;;;;;;57.27;17.53;;;7.70;99.90;;;;;;5073291;28;20454;-73
2021/12/19 03:46:56;;;;;;;53.50;14.10;;;7.70;99.90;;;;;;5072490;28;20211;-73
2021/12/19 03:49:24;;;;;;;44.77;12.80;;;7.80;99.90;;;;;;5073191;28;20216;-73
2021/12/19 03:51:51;;;;;;;55.17;16.80;;;7.70;99.90;;;;;;5075572;28;20484;-72
2021/12/19 03:54:17;;;;;;;59.53;17.40;;;7.70;99.90;;;;;;5074883;28;20205;-73
2021/12/19 03:56:44;;;;;;;52.60;14.73;;;7.70;99.90;;;;;;5073186;28;20219;-73
2021/12/19 03:59:11;;;;;;;53.67;15.13;;;7.70;99.90;;;;;;5075183;28;20697;-73
2021/12/19 04:01:42;;;;;;;56.03;14.77;;;7.80;99.90;;;;;;5073711;28;20588;-73
2021/12/19 04:04:09;;;;;;;55.10;14.67;;;7.70;99.90;;;;;;5074326;28;20731;-73
2021/12/19 04:06:36;;;;;;;44.53;12.93;;;7.70;99.90;;;;;;5074183;28;20239;-72
2021/12/19 04:09:04;;;;;;;53.23;14.63;;;7.80;99.90;;;;;;5072551;28;20208;-72
2021/12/19 04:11:31;;;;;;;53.63;14.70;;;7.80;99.90;;;;;;5074831;28;20233;-73
2021/12/19 04:13:58;;;;;;;51.40;15.07;;;7.80;99.90;;;;;;5075398;28;20235;-73
2021/12/19 04:16:24;;;;;;;43.97;12.97;;;7.80;99.90;;;;;;5071025;28;20342;-73
2021/12/19 04:18:53;;;;;;;54.23;16.30;;;5.90;99.90;;;;;;5074187;28;20221;-73
2021/12/19 04:21:20;;;;;;;54.47;16.27;;;7.80;99.90;;;;;;5079353;28;20207;-73
2021/12/19 04:23:47;;;;;;;50.20;15.20;;;7.80;99.90;;;;;;5079146;28;20212;-73
2021/12/19 04:26:14;;;;;;;44.30;13.43;;;7.90;99.90;;;;;;5077843;28;20219;-73
2021/12/19 04:28:42;;;;;;;58.07;16.33;;;7.90;99.90;;;;;;5078871;28;20565;-73
2021/12/19 04:31:09;;;;;;;54.37;15.67;;;8.00;99.90;;;;;;5080051;28;20217;-73
2021/12/19 04:33:38;;;;;;;47.47;14.93;;;8.00;99.90;;;;;;5077287;28;20207;-73
2021/12/19 04:36:09;;;;;;;54.07;15.80;;;8.00;99.90;;;;;;5077863;28;20277;-73
2021/12/19 04:44:38;;;;;;;50.17;14.37;;;7.90;99.90;;;;;;5076640;28;20218;-73
2021/12/19 04:53:02;;;;;;;49.47;14.50;;;7.80;99.90;;;;;;5078995;28;20229;-73
2021/12/19 04:58:22;;;;;;;57.87;15.83;;;7.80;99.90;;;;;;5062865;28;20330;-71
2021/12/19 05:01:00;;;;;;;57.73;15.77;;;7.70;99.90;;;;;;5077888;28;20213;-71
2021/12/19 05:03:41;;;;;;;54.67;14.00;;;7.70;99.90;;;;;;5076092;28;20235;-70
2021/12/19 05:06:16;;;;;;;52.40;14.27;;;7.80;99.90;;;;;;5075614;28;20730;-70
2021/12/19 05:14:16;;;;;;;43.47;11.17;;;7.70;99.90;;;;;;5077588;28;20539;-70
2021/12/19 05:16:45;;;;;;;45.93;11.53;;;7.70;99.90;;;;;;5075630;28;20223;-70
2021/12/19 05:19:27;;;;;;;51.00;13.10;;;7.70;99.90;;;;;;5076584;28;20709;-70
2021/12/19 05:21:58;;;;;;;46.67;11.80;;;7.70;99.90;;;;;;5076071;28;20588;-70
2021/12/19 05:24:49;;;;;;;43.60;11.60;;;7.70;99.90;;;;;;5076307;28;20720;-70
2021/12/19 05:27:16;;;;;;;47.57;12.37;;;7.70;99.90;;;;;;5077320;28;20728;-70
2021/12/19 05:29:43;;;;;;;45.93;12.30;;;7.60;99.90;;;;;;5075376;28;20209;-70
2021/12/19 05:32:10;;;;;;;47.73;12.37;;;7.60;99.90;;;;;;5078401;28;20229;-70
2021/12/19 05:34:37;;;;;;;51.43;12.57;;;7.60;99.90;;;;;;5077897;28;20209;-70
2021/12/19 05:45:20;;;;;;;58.53;14.97;;;7.70;99.90;;;;;;5078552;28;20232;-70
2021/12/19 05:47:49;;;;;;;42.13;9.50;;;7.70;99.90;;;;;;5075279;28;20370;-70
2021/12/19 05:50:18;;;;;;;51.43;12.77;;;7.70;99.90;;;;;;5075343;28;20699;-71
2021/12/19 05:52:45;;;;;;;49.30;13.50;;;7.60;99.90;;;;;;5077646;28;20728;-70
2021/12/19 05:55:14;;;;;;;51.97;12.37;;;7.70;99.90;;;;;;5075300;28;20224;-70
2021/12/19 05:57:41;;;;;;;57.87;14.17;;;7.60;99.90;;;;;;5076569;28;20585;-70
2021/12/19 06:00:13;;;;;;;59.73;15.03;;;7.70;99.90;;;;;;5075897;28;20220;-72
2021/12/19 06:02:41;;;;;;;54.70;14.33;;;7.60;99.90;;;;;;5077360;28;20317;-70
2021/12/19 06:05:08;;;;;;;60.00;15.50;;;7.60;99.90;;;;;;5075352;28;20247;-70
2021/12/19 06:07:35;;;;;;;52.07;13.03;;;7.60;99.90;;;;;;5076542;28;20223;-70
2021/12/19 06:10:04;;;;;;;50.80;14.10;;;7.60;99.90;;;;;;5078005;28;20210;-70
2021/12/19 06:12:32;;;;;;;56.77;14.43;;;7.60;99.90;;;;;;5077274;28;20613;-70
2021/12/19 06:14:59;;;;;;;51.33;15.03;;;7.60;99.90;;;;;;5075006;28;20338;-70
2021/12/19 06:17:26;;;;;;;57.50;15.77;;;7.60;99.90;;;;;;5076226;28;20236;-70
2021/12/19 06:19:53;;;;;;;58.70;15.67;;;7.60;99.90;;;;;;5078568;28;20291;-70
2021/12/19 06:22:20;;;;;;;52.57;14.80;;;7.60;99.90;;;;;;5076348;28;20237;-70
2021/12/19 06:24:47;;;;;;;54.30;15.33;;;7.60;99.90;;;;;;5073917;28;20221;-70
2021/12/19 06:27:14;;;;;;;59.37;15.53;;;7.60;99.90;;;;;;5077834;28;20213;-70
2021/12/19 06:29:42;;;;;;;54.73;15.30;;;7.60;99.90;;;;;;5078604;28;20216;-70
2021/12/19 06:32:09;;;;;;;62.40;16.90;;;7.60;99.90;;;;;;5076564;28;20733;-71
2021/12/19 06:34:36;;;;;;;52.73;13.97;;;7.60;99.90;;;;;;5075788;28;20686;-70
2021/12/19 06:37:08;;;;;;;47.63;12.97;;;7.70;99.90;;;;;;5077425;28;20221;-70
2021/12/19 06:39:36;;;;;;;50.87;13.27;;;7.60;99.90;;;;;;5075054;28;20658;-70
2021/12/19 06:42:04;;;;;;;51.73;12.50;;;7.50;99.90;;;;;;5075889;28;20318;-70
2021/12/19 06:44:31;;;;;;;50.37;12.70;;;7.50;99.90;;;;;;5072485;28;20212;-71
2021/12/19 06:47:00;;;;;;;57.80;13.63;;;7.40;99.90;;;;;;5071525;28;20208;-71
2021/12/19 06:49:27;;;;;;;45.93;11.80;;;7.40;99.90;;;;;;5075221;28;20250;-71
2021/12/19 06:51:54;;;;;;;45.37;12.17;;;7.40;99.90;;;;;;5074433;28;20293;-71
2021/12/19 06:54:21;;;;;;;50.03;12.90;;;7.40;99.90;;;;;;5075065;28;20850;-71
2021/12/19 06:56:49;;;;;;;48.90;12.20;;;7.40;99.90;;;;;;5072529;28;20213;-71
2021/12/19 06:59:15;;;;;;;45.67;10.77;;;7.40;99.90;;;;;;5073419;28;20211;-71
2021/12/19 07:01:42;;;;;;;50.33;13.03;;;7.30;99.90;;;;;;5075329;28;20229;-71
2021/12/19 07:04:11;;;;;;;53.77;12.87;;;7.30;99.90;;;;;;5074276;28;20602;-71
2021/12/19 07:06:38;;;;;;;41.10;9.80;;;7.30;99.90;;;;;;5072960;28;20228;-71
2021/12/19 07:09:04;;;;;;;43.13;11.03;;;7.30;99.90;;;;;;5074100;28;20214;-71
2021/12/19 07:11:31;;;;;;;53.40;13.33;;;7.20;99.90;;;;;;5072723;28;20276;-71
2021/12/19 07:13:58;;;;;;;41.53;10.73;;;7.20;99.90;;;;;;5074494;28;20215;-71
2021/12/19 07:16:25;;;;;;;45.30;10.77;;;7.20;99.90;;;;;;5074791;28;20584;-71
2021/12/19 07:18:52;;;;;;;54.63;14.13;;;7.30;99.90;;;;;;5073760;28;20216;-71
2021/12/19 07:21:23;;;;;;;50.47;11.97;;;7.30;99.90;;;;;;5072241;28;21370;-71
2021/12/19 07:23:50;;;;;;;44.33;12.20;;;7.30;99.90;;;;;;5073326;28;20706;-70
2021/12/19 07:26:17;;;;;;;50.83;12.03;;;7.30;99.90;;;;;;5071672;28;20229;-71
2021/12/19 07:28:46;;;;;;;51.27;13.37;;;7.30;99.90;;;;;;5073694;28;20218;-71
2021/12/19 07:31:16;;;;;;;59.80;14.40;;;7.30;99.90;;;;;;5073255;28;20217;-71
2021/12/19 07:33:44;;;;;;;50.77;13.00;;;7.30;99.90;;;;;;5071752;28;20208;-71
2021/12/19 07:36:11;;;;;;;42.83;11.77;;;7.20;99.90;;;;;;5072887;28;20473;-71
2021/12/19 07:38:50;;;;;;;45.10;11.60;;;7.20;99.90;;;;;;5078554;28;20367;-72
2021/12/19 07:41:17;;;;;;;45.17;11.43;;;7.20;99.90;;;;;;5083684;28;20631;-72
2021/12/19 07:43:44;;;;;;;53.10;12.63;;;7.20;99.90;;;;;;5080014;28;21236;-70
2021/12/19 07:46:12;;;;;;;53.73;14.13;;;7.20;99.90;;;;;;5070494;28;20236;-70
2021/12/19 07:48:39;;;;;;;44.70;12.03;;;7.20;99.90;;;;;;5089679;28;20203;-70
2021/12/19 07:51:06;;;;;;;48.73;12.67;;;7.20;99.90;;;;;;5089960;28;20233;-70
2021/12/19 07:53:33;;;;;;;41.17;10.03;;;7.20;99.90;;;;;;5090623;28;20716;-70
2021/12/19 07:56:01;;;;;;;48.03;13.27;;;7.20;99.90;;;;;;5089152;28;20583;-70
2021/12/19 07:58:28;;;;;;;52.73;12.10;;;7.10;99.90;;;;;;5083087;28;20209;-69
2021/12/19 08:00:55;;;;;;;31.37;7.43;;;7.10;99.90;;;;;;5084943;28;20208;-69
2021/12/19 08:03:23;;;;;;;53.10;13.13;;;7.10;99.90;;;;;;5083777;28;20231;-69
2021/12/19 08:05:50;;;;;;;43.83;11.57;;;7.10;99.90;;;;;;5084487;28;20489;-69
2021/12/19 08:08:22;;;;;;;47.17;11.60;;;7.20;99.90;;;;;;5084333;28;20220;-69
2021/12/19 08:13:34;;;;;;;45.90;12.47;;;7.20;99.90;;;;;;5081403;28;20261;-69
2021/12/19 08:16:01;;;;;;;44.93;11.67;;;7.20;99.90;;;;;;5080253;28;20197;-69
2021/12/19 08:18:28;;;;;;;46.87;12.60;;;7.20;99.90;;;;;;5077974;28;20330;-70
2021/12/19 08:20:55;;;;;;;49.53;12.17;;;7.20;99.90;;;;;;5082904;28;20234;-70
2021/12/19 08:23:22;;;;;;;53.17;13.17;;;7.30;99.90;;;;;;5087547;28;20684;-70
2021/12/19 08:25:49;;;;;;;47.20;12.50;;;7.30;99.90;;;;;;5077597;28;20212;-70
2021/12/19 08:28:16;;;;;;;41.93;10.43;;;7.30;99.90;;;;;;5081374;28;20586;-71
2021/12/19 08:30:44;;;;;;;48.50;11.87;;;7.40;99.90;;;;;;5080790;28;20839;-72
2021/12/19 08:33:11;;;;;;;44.13;10.80;;;7.40;99.90;;;;;;5084430;28;20789;-71
2021/12/19 08:35:38;;;;;;;41.73;10.60;;;7.40;99.90;;;;;;5083570;28;20439;-71
2021/12/19 08:38:05;;;;;;;42.00;12.13;;;7.40;99.90;;;;;;5082072;28;20211;-71
2021/12/19 08:40:32;;;;;;;49.43;12.77;;;7.40;99.90;;;;;;5083062;28;20211;-71
2021/12/19 08:42:59;;;;;;;44.93;11.77;;;7.60;99.90;;;;;;5078856;28;20323;-71
2021/12/19 08:45:27;;;;;;;38.70;10.37;;;7.50;99.90;;;;;;5081935;28;20296;-71
2021/12/19 08:47:55;;;;;;;47.57;12.27;;;7.50;99.90;;;;;;5083416;28;20207;-71
2021/12/19 08:50:23;;;;;;;52.73;12.60;;;7.50;99.90;;;;;;5086449;28;20220;-71
2021/12/19 08:52:51;;;;;;;44.90;12.13;;;7.50;99.90;;;;;;5084412;28;20235;-71
2021/12/19 08:55:21;;;;;;;42.40;11.33;;;7.50;99.90;;;;;;5084026;28;20214;-71
2021/12/19 08:57:48;;;;;;;50.23;13.30;;;7.50;99.90;;;;;;5083048;28;20691;-71
2021/12/19 09:00:18;;;;;;;50.90;12.97;;;7.50;99.90;;;;;;5082445;28;20218;-69
2021/12/19 09:02:47;;;;;;;49.40;12.43;;;7.60;99.90;;;;;;5080599;28;20748;-69
2021/12/19 09:05:15;;;;;;;48.30;11.47;;;7.60;99.90;;;;;;5081392;28;20212;-69
2021/12/19 09:07:42;;;;;;;43.30;11.30;;;7.60;99.90;;;;;;5085235;28;20211;-69
2021/12/19 09:10:11;;;;;;;51.27;12.17;;;7.60;99.90;;;;;;5083342;28;20204;-69
2021/12/19 09:12:38;;;;;;;46.67;12.53;;;7.70;99.90;;;;;;5084981;28;20243;-69
2021/12/19 09:15:07;;;;;;;52.70;13.87;;;7.70;99.90;;;;;;5074655;28;20575;-71
2021/12/19 09:17:34;;;;;;;50.10;11.20;;;7.70;99.90;;;;;;5081459;28;20204;-69
2021/12/19 09:20:02;;;;;;;41.20;10.80;;;7.70;99.90;;;;;;5080472;28;20200;-69
2021/12/19 09:22:30;;;;;;;46.47;10.73;;;7.70;99.90;;;;;;5090211;28;20271;-69
2021/12/19 09:24:57;;;;;;;46.50;12.07;;;7.70;99.90;;;;;;5084514;28;20207;-69
2021/12/19 09:27:25;;;;;;;49.07;13.03;;;7.70;99.90;;;;;;5078692;28;20225;-69
2021/12/19 09:29:53;;;;;;;43.33;10.43;;;7.70;99.90;;;;;;5086911;28;20321;-69
2021/12/19 09:32:19;;;;;;;46.17;11.90;;;7.70;99.90;;;;;;5075553;28;20240;-69
2021/12/19 09:34:46;;;;;;;52.27;13.13;;;7.70;99.90;;;;;;5075602;28;20700;-69
2021/12/19 09:37:14;;;;;;;46.73;10.90;;;7.70;99.90;;;;;;5075310;28;20525;-69
2021/12/19 09:39:43;;;;;;;43.60;11.07;;;7.80;99.90;;;;;;5078566;28;20533;-69
2021/12/19 09:42:10;;;;;;;42.97;10.40;;;7.80;99.90;;;;;;5079723;28;20621;-69
2021/12/19 09:44:39;;;;;;;39.37;10.53;;;7.80;99.90;;;;;;5085151;28;20278;-69
2021/12/19 09:47:08;;;;;;;46.00;11.33;;;7.80;99.90;;;;;;5082120;28;21227;-69
2021/12/19 09:49:36;;;;;;;43.83;10.73;;;7.90;99.90;;;;;;5071863;28;20217;-69
2021/12/19 09:52:05;;;;;;;38.57;9.20;;;7.80;99.90;;;;;;5072251;28;20257;-69
2021/12/19 09:54:33;;;;;;;45.70;11.37;;;7.80;99.90;;;;;;5070255;28;20218;-69
2021/12/19 09:57:01;;;;;;;45.07;11.27;;;7.80;99.90;;;;;;5073176;28;20208;-69
2021/12/19 09:59:28;;;;;;;40.87;9.40;;;7.80;99.90;;;;;;5071994;28;20209;-69
2021/12/19 10:01:54;;;;;;;43.83;11.33;;;7.90;99.90;;;;;;5070293;28;20483;-71
2021/12/19 10:04:30;;;;;;;37.67;9.43;;;7.90;99.90;;;;;;5073194;28;20215;-71
2021/12/19 10:07:13;;;;;;;35.83;9.27;;;8.00;99.90;;;;;;5075279;28;20246;-71
2021/12/19 10:09:54;;;;;;;37.63;8.93;;;8.00;99.90;;;;;;5071680;28;20212;-71
2021/12/19 10:12:38;;;;;;;41.83;10.20;;;8.30;99.90;;;;;;5069316;28;20806;-71
2021/12/19 10:15:09;;;;;;;44.63;10.17;;;8.00;99.90;;;;;;5073659;28;20228;-70
2021/12/19 10:17:37;;;;;;;42.77;10.27;;;8.00;99.90;;;;;;5072680;28;20202;-71
2021/12/19 10:20:06;;;;;;;45.30;9.93;;;8.00;99.90;;;;;;5079623;28;20696;-71
2021/12/19 10:22:35;;;;;;;37.27;8.90;;;8.00;99.90;;;;;;5083715;28;20231;-71
2021/12/19 10:25:17;;;;;;;41.03;9.43;;;8.00;99.90;;;;;;5082523;28;20204;-71
2021/12/19 10:27:46;;;;;;;38.87;9.30;;;8.00;99.90;;;;;;5080937;28;20235;-71
2021/12/19 10:30:18;;;;;;;34.60;7.67;;;8.00;99.90;;;;;;5080188;28;20221;-71
2021/12/19 10:32:57;;;;;;;42.40;9.43;;;8.00;99.90;;;;;;5082547;28;20223;-71
2021/12/19 10:35:28;;;;;;;42.00;10.43;;;8.00;99.90;;;;;;5077703;28;20235;-71
2021/12/19 10:37:55;;;;;;;43.63;11.23;;;8.00;99.90;;;;;;5080741;28;20211;-71
2021/12/19 10:40:23;;;;;;;40.50;9.43;;;8.10;99.90;;;;;;5080018;28;20675;-71
2021/12/19 10:42:57;;;;;;;38.33;9.27;;;8.20;99.90;;;;;;5083250;28;20224;-71
2021/12/19 10:45:32;;;;;;;45.17;10.47;;;8.20;99.90;;;;;;5078880;28;20673;-72
2021/12/19 10:48:21;;;;;;;39.20;10.03;;;8.30;99.90;;;;;;5079406;28;20238;-72
2021/12/19 10:50:51;;;;;;;43.93;11.13;;;8.40;99.90;;;;;;5079771;28;20213;-71
2021/12/19 10:53:19;;;;;;;35.53;10.27;;;8.50;99.90;;;;;;5072956;28;20283;-72
2021/12/19 10:55:49;;;;;;;36.03;9.27;;;8.60;99.90;;;;;;5085359;28;20212;-72
2021/12/19 10:58:25;;;;;;;40.90;10.10;;;8.60;99.90;;;;;;5074973;28;20622;-73
2021/12/19 11:01:04;;;;;;;39.97;10.03;;;8.60;99.90;;;;;;5072672;28;20214;-74
2021/12/19 11:03:41;;;;;;;40.03;9.67;;;8.70;99.90;;;;;;5070549;28;21741;-72
2021/12/19 11:06:33;;;;;;;38.90;9.30;;;8.70;99.90;;;;;;5070899;28;20291;-73
2021/12/19 11:09:05;;;;;;;42.27;10.40;;;8.70;99.90;;;;;;5076533;28;20212;-75
2021/12/19 11:11:41;;;;;;;35.07;8.20;;;8.70;99.90;;;;;;5073886;28;20260;-71
2021/12/19 11:14:12;;;;;;;38.20;8.40;;;8.70;99.90;;;;;;5087588;28;20693;-72
2021/12/19 11:16:39;;;;;;;34.13;8.13;;;8.80;99.90;;;;;;5086076;28;20207;-72
2021/12/19 11:19:06;;;;;;;36.23;8.63;;;8.80;99.90;;;;;;5084859;28;20209;-71
2021/12/19 11:21:35;;;;;;;36.10;8.57;;;8.90;99.90;;;;;;5084851;28;20230;-73
2021/12/19 11:24:04;;;;;;;34.90;7.77;;;8.80;99.90;;;;;;5075330;28;20214;-72
2021/12/19 11:26:32;;;;;;;37.03;8.70;;;8.70;99.90;;;;;;5072579;28;20646;-73
2021/12/19 11:29:01;;;;;;;38.13;8.97;;;8.60;99.90;;;;;;5071316;28;20592;-71
2021/12/19 11:31:31;;;;;;;41.87;9.13;;;8.60;99.90;;;;;;5065677;28;20309;-71
2021/12/19 11:34:15;;;;;;;36.17;8.53;;;8.70;99.90;;;;;;5064790;28;20237;-72
2021/12/19 11:36:46;;;;;;;39.20;8.73;;;8.80;99.90;;;;;;5062975;28;20215;-72
2021/12/19 11:39:15;;;;;;;38.87;8.00;;;7.30;99.90;;;;;;5076451;28;20219;-71
2021/12/19 11:42:04;;;;;;;27.50;6.27;;;9.10;99.90;;;;;;5074092;28;20324;-71
2021/12/19 11:44:33;;;;;;;35.40;7.57;;;9.30;99.90;;;;;;5066289;28;20663;-72
2021/12/19 11:47:06;;;;;;;43.57;8.80;;;9.40;99.90;;;;;;5065386;28;20314;-71
2021/12/19 11:49:34;;;;;;;34.00;7.20;;;9.40;99.90;;;;;;5069754;28;20685;-71
2021/12/19 11:52:24;;;;;;;35.07;7.33;;;9.40;99.90;;;;;;5071256;28;20236;-72
2021/12/19 11:55:18;;;;;;;31.30;6.83;;;9.30;99.90;;;;;;5068564;28;20210;-72
2021/12/19 11:58:16;;;;;;;32.10;6.77;;;9.20;99.90;;;;;;5073671;28;20199;-72
2021/12/19 12:00:50;;;;;;;30.90;6.20;;;9.20;99.90;;;;;;5072456;28;20215;-71
2021/12/19 12:03:39;;;;;;;32.43;6.57;;;9.10;99.90;;;;;;5073985;28;20225;-70
2021/12/19 12:06:33;;;;;;;35.33;7.13;;;9.00;99.90;;;;;;5075647;28;20213;-72
2021/12/19 12:09:21;;;;;;;36.20;7.77;;;9.00;99.90;;;;;;5076184;28;20212;-72
2021/12/19 12:12:16;;;;;;;32.00;6.73;;;9.00;99.90;;;;;;5073521;28;20226;-72
2021/12/19 12:14:55;;;;;;;34.83;6.90;;;9.00;99.90;;;;;;5076626;28;20207;-72
2021/12/19 12:17:30;;;;;;;26.93;6.13;;;9.00;99.90;;;;;;5073795;28;20295;-71
2021/12/19 12:20:00;;;;;;;30.77;6.43;;;8.90;99.90;;;;;;5080920;28;20223;-72
2021/12/19 12:22:36;;;;;;;31.97;6.57;;;8.90;99.90;;;;;;5075277;28;20637;-72
2021/12/19 12:25:32;;;;;;;33.10;6.63;;;8.90;99.90;;;;;;5074171;28;20393;-72
2021/12/19 12:28:04;;;;;;;31.63;6.47;;;8.90;99.90;;;;;;5078524;28;20241;-72
2021/12/19 12:30:34;;;;;;;24.57;5.40;;;9.00;99.90;;;;;;5084182;28;20208;-72
2021/12/19 12:33:03;;;;;;;34.80;7.13;;;9.00;99.90;;;;;;5080579;28;20230;-72
2021/12/19 12:35:33;;;;;;;27.60;5.80;;;9.00;99.90;;;;;;5079424;28;20668;-72
2021/12/19 12:38:01;;;;;;;34.07;7.00;;;9.00;99.90;;;;;;5076607;28;20225;-72
2021/12/19 12:40:34;;;;;;;25.57;5.70;;;8.90;99.90;;;;;;5078216;28;20212;-72
2021/12/19 12:43:09;;;;;;;26.70;5.97;;;8.90;99.90;;;;;;5075584;28;20997;-72
2021/12/19 12:46:06;;;;;;;31.47;6.77;;;8.90;99.90;;;;;;5075328;28;20206;-72
2021/12/19 12:48:51;;;;;;;32.07;6.43;;;8.80;99.90;;;;;;5037738;28;20241;-72
2021/12/19 12:51:25;;;;;;;34.00;6.50;;;8.70;99.90;;;;;;5090252;28;20226;-72
2021/12/19 12:53:53;;;;;;;36.30;7.33;;;8.70;99.90;;;;;;5089907;28;20210;-71
2021/12/19 12:56:24;;;;;;;36.80;8.07;;;8.60;99.90;;;;;;5085913;28;20213;-71
2021/12/19 12:58:54;;;;;;;46.53;9.93;;;8.60;99.90;;;;;;5073808;28;20308;-72
2021/12/19 13:01:35;;;;;;;46.53;9.23;;;8.50;99.90;;;;;;5076773;28;21264;-72
2021/12/19 13:04:08;;;;;;;28.90;6.40;;;8.60;99.90;;;;;;5088002;28;20254;-72
2021/12/19 13:06:38;;;;;;;36.77;7.70;;;8.60;99.90;;;;;;5083412;28;20803;-72
2021/12/19 13:09:11;;;;;;;28.00;6.37;;;8.60;99.90;;;;;;5083511;28;20879;-71
2021/12/19 13:11:39;;;;;;;35.43;7.93;;;8.60;99.90;;;;;;5082266;28;20610;-71
2021/12/19 13:14:19;;;;;;;34.47;7.30;;;8.60;99.90;;;;;;5077203;28;20242;-72
2021/12/19 13:16:48;;;;;;;37.53;8.67;;;8.60;99.90;;;;;;5077404;28;20702;-72
2021/12/19 13:19:38;;;;;;;41.20;8.43;;;8.60;99.90;;;;;;5076151;28;20225;-71
2021/12/19 13:22:08;;;;;;;37.00;8.50;;;9.20;99.90;;;;;;5075457;28;20230;-71
2021/12/19 13:24:35;;;;;;;38.07;8.37;;;8.60;99.90;;;;;;5073096;28;21080;-72
2021/12/19 13:27:07;;;;;;;36.93;8.37;;;8.50;99.90;;;;;;5077656;28;20304;-72
2021/12/19 13:29:34;;;;;;;36.47;8.17;;;8.50;99.90;;;;;;5076461;28;20224;-72
2021/12/19 13:32:23;;;;;;;37.87;8.63;;;8.50;99.90;;;;;;5076052;28;20712;-72
2021/12/19 13:34:52;;;;;;;37.20;8.03;;;8.50;99.90;;;;;;5086605;28;20688;-71
2021/12/19 13:37:21;;;;;;;35.07;8.00;;;8.50;99.90;;;;;;5086256;28;20208;-71
2021/12/19 13:40:00;;;;;;;39.70;8.37;;;8.50;99.90;;;;;;5088290;28;21471;-71
2021/12/19 13:42:39;;;;;;;36.37;7.87;;;8.50;99.90;;;;;;5080574;28;20600;-72
2021/12/19 13:45:31;;;;;;;43.00;9.30;;;8.50;99.90;;;;;;5075616;28;20823;-71
2021/12/19 13:48:00;;;;;;;35.03;8.03;;;8.50;99.90;;;;;;5082229;28;20267;-71
2021/12/19 13:50:32;;;;;;;32.30;7.47;;;8.50;99.90;;;;;;5088833;28;20208;-71